sensor_id;sensor_type;location;lat;lon;timestamp;temperature;humidity
324;DHT22;149;51.094;17.002;2022-08-07T00:02:11;15.80;99.90
324;DHT22;149;51.094;17.002;2022-08-07T00:04:58;15.70;99.90
324;DHT22;149;51.094;17.002;2022-08-07T00:07:26;15.80;99.90
324;DHT22;149;51.094;17.002;2022-08-07T00:10:06;15.90;99.90
324;DHT22;149;51.094;17.002;2022-08-07T00:12:54;15.90;99.90
324;DHT22;149;51.094;17.002;2022-08-07T00:15:28;15.80;99.90
324;DHT22;149;51.094;17.002;2022-08-07T00:18:17;15.90;99.90
324;DHT22;149;51.094;17.002;2022-08-07T00:20:58;16.00;99.90
324;DHT22;149;51.094;17.002;2022-08-07T00:23:28;16.10;99.90
324;DHT22;149;51.094;17.002;2022-08-07T00:25:56;16.00;99.90
324;DHT22;149;51.094;17.002;2022-08-07T00:28:38;16.00;99.90
324;DHT22;149;51.094;17.002;2022-08-07T00:31:11;15.90;99.90
324;DHT22;149;51.094;17.002;2022-08-07T00:33:43;15.90;99.90
324;DHT22;149;51.094;17.002;2022-08-07T00:36:13;15.90;99.90
324;DHT22;149;51.094;17.002;2022-08-07T00:38:42;15.90;99.90
324;DHT22;149;51.094;17.002;2022-08-07T00:41:09;16.00;99.90
324;DHT22;149;51.094;17.002;2022-08-07T00:43:41;15.90;99.90
324;DHT22;149;51.094;17.002;2022-08-07T00:46:28;15.70;99.90
324;DHT22;149;51.094;17.002;2022-08-07T00:48:56;16.00;99.90
324;DHT22;149;51.094;17.002;2022-08-07T00:51:28;16.00;99.90
324;DHT22;149;51.094;17.002;2022-08-07T00:54:15;15.80;99.90
324;DHT22;149;51.094;17.002;2022-08-07T00:56:45;15.70;99.90
324;DHT22;149;51.094;17.002;2022-08-07T00:59:16;15.80;99.90
324;DHT22;149;51.094;17.002;2022-08-07T01:01:58;15.70;99.90
324;DHT22;149;51.094;17.002;2022-08-07T01:04:26;15.50;99.90
324;DHT22;149;51.094;17.002;2022-08-07T01:06:55;15.50;99.90
324;DHT22;149;51.094;17.002;2022-08-07T01:09:24;15.50;99.90
324;DHT22;149;51.094;17.002;2022-08-07T01:12:12;15.50;99.90
324;DHT22;149;51.094;17.002;2022-08-07T01:14:56;15.70;99.90
324;DHT22;149;51.094;17.002;2022-08-07T01:17:30;15.50;99.90
324;DHT22;149;51.094;17.002;2022-08-07T01:20:08;15.40;99.90
324;DHT22;149;51.094;17.002;2022-08-07T01:22:42;15.30;99.90
324;DHT22;149;51.094;17.002;2022-08-07T01:25:12;15.30;99.90
324;DHT22;149;51.094;17.002;2022-08-07T01:28:00;15.40;99.90
324;DHT22;149;51.094;17.002;2022-08-07T01:30:28;15.40;99.90
324;DHT22;149;51.094;17.002;2022-08-07T01:32:56;15.40;99.90
324;DHT22;149;51.094;17.002;2022-08-07T01:35:24;15.30;99.90
324;DHT22;149;51.094;17.002;2022-08-07T01:38:11;15.20;99.90
324;DHT22;149;51.094;17.002;2022-08-07T01:40:53;15.60;99.90
324;DHT22;149;51.094;17.002;2022-08-07T01:43:22;15.30;99.90
324;DHT22;149;51.094;17.002;2022-08-07T01:45:52;15.30;99.90
324;DHT22;149;51.094;17.002;2022-08-07T01:48:20;15.10;99.90
324;DHT22;149;51.094;17.002;2022-08-07T01:50:59;15.10;99.90
324;DHT22;149;51.094;17.002;2022-08-07T01:53:53;15.20;99.90
324;DHT22;149;51.094;17.002;2022-08-07T01:56:53;15.10;99.90
324;DHT22;149;51.094;17.002;2022-08-07T01:59:28;15.20;99.90
324;DHT22;149;51.094;17.002;2022-08-07T02:02:07;15.20;99.90
324;DHT22;149;51.094;17.002;2022-08-07T02:04:43;15.20;99.90
324;DHT22;149;51.094;17.002;2022-08-07T02:07:25;15.10;99.90
324;DHT22;149;51.094;17.002;2022-08-07T02:10:16;15.10;99.90
324;DHT22;149;51.094;17.002;2022-08-07T02:12:45;15.00;99.90
324;DHT22;149;51.094;17.002;2022-08-07T02:15:20;14.90;99.90
324;DHT22;149;51.094;17.002;2022-08-07T02:17:48;15.00;99.90
324;DHT22;149;51.094;17.002;2022-08-07T02:20:18;14.90;99.90
324;DHT22;149;51.094;17.002;2022-08-07T02:22:58;14.80;99.90
324;DHT22;149;51.094;17.002;2022-08-07T02:25:32;14.90;99.90
324;DHT22;149;51.094;17.002;2022-08-07T02:28:20;14.90;99.90
324;DHT22;149;51.094;17.002;2022-08-07T02:30:51;14.90;99.90
324;DHT22;149;51.094;17.002;2022-08-07T02:33:19;14.90;99.90
324;DHT22;149;51.094;17.002;2022-08-07T02:35:47;14.90;99.90
324;DHT22;149;51.094;17.002;2022-08-07T02:38:36;14.70;99.90
324;DHT22;149;51.094;17.002;2022-08-07T02:41:17;14.70;99.90
324;DHT22;149;51.094;17.002;2022-08-07T02:43:48;14.80;99.90
324;DHT22;149;51.094;17.002;2022-08-07T02:46:22;14.90;99.90
324;DHT22;149;51.094;17.002;2022-08-07T02:48:51;15.00;99.90
324;DHT22;149;51.094;17.002;2022-08-07T02:51:21;14.70;99.90
324;DHT22;149;51.094;17.002;2022-08-07T02:54:10;14.70;99.90
324;DHT22;149;51.094;17.002;2022-08-07T02:56:40;14.70;99.90
324;DHT22;149;51.094;17.002;2022-08-07T02:59:14;14.70;99.90
324;DHT22;149;51.094;17.002;2022-08-07T03:01:43;14.70;99.90
324;DHT22;149;51.094;17.002;2022-08-07T03:04:18;14.70;99.90
324;DHT22;149;51.094;17.002;2022-08-07T03:06:46;14.60;99.90
324;DHT22;149;51.094;17.002;2022-08-07T03:09:14;14.60;99.90
324;DHT22;149;51.094;17.002;2022-08-07T03:12:05;14.50;99.90
324;DHT22;149;51.094;17.002;2022-08-07T03:14:44;14.40;99.90
324;DHT22;149;51.094;17.002;2022-08-07T03:17:17;14.50;99.90
324;DHT22;149;51.094;17.002;2022-08-07T03:19:49;14.30;99.90
324;DHT22;149;51.094;17.002;2022-08-07T03:22:21;14.20;99.90
324;DHT22;149;51.094;17.002;2022-08-07T03:24:55;14.10;99.90
324;DHT22;149;51.094;17.002;2022-08-07T03:27:23;14.30;99.90
324;DHT22;149;51.094;17.002;2022-08-07T03:30:08;14.10;99.90
324;DHT22;149;51.094;17.002;2022-08-07T03:32:40;14.20;99.90
324;DHT22;149;51.094;17.002;2022-08-07T03:35:25;14.20;99.90
324;DHT22;149;51.094;17.002;2022-08-07T03:38:10;14.10;99.90
324;DHT22;149;51.094;17.002;2022-08-07T03:40:39;14.20;99.90
324;DHT22;149;51.094;17.002;2022-08-07T03:43:10;14.20;99.90
324;DHT22;149;51.094;17.002;2022-08-07T03:45:40;14.20;99.90
324;DHT22;149;51.094;17.002;2022-08-07T03:48:13;14.30;99.90
324;DHT22;149;51.094;17.002;2022-08-07T03:50:40;14.20;99.90
324;DHT22;149;51.094;17.002;2022-08-07T03:53:21;14.10;99.90
324;DHT22;149;51.094;17.002;2022-08-07T03:56:09;14.20;99.90
324;DHT22;149;51.094;17.002;2022-08-07T03:58:39;14.20;99.90
324;DHT22;149;51.094;17.002;2022-08-07T04:01:27;14.50;99.90
324;DHT22;149;51.094;17.002;2022-08-07T04:03:58;14.30;99.90
324;DHT22;149;51.094;17.002;2022-08-07T04:06:30;14.20;99.90
324;DHT22;149;51.094;17.002;2022-08-07T04:09:04;14.00;99.90
324;DHT22;149;51.094;17.002;2022-08-07T04:11:43;14.10;99.90
324;DHT22;149;51.094;17.002;2022-08-07T04:14:31;14.10;99.90
324;DHT22;149;51.094;17.002;2022-08-07T04:17:10;14.10;99.90
324;DHT22;149;51.094;17.002;2022-08-07T04:19:47;14.50;99.90
324;DHT22;149;51.094;17.002;2022-08-07T04:22:22;14.60;99.90
324;DHT22;149;51.094;17.002;2022-08-07T04:24:55;14.90;99.90
324;DHT22;149;51.094;17.002;2022-08-07T04:27:24;15.10;99.90
324;DHT22;149;51.094;17.002;2022-08-07T04:29:52;15.30;99.90
324;DHT22;149;51.094;17.002;2022-08-07T04:32:29;15.40;99.90
324;DHT22;149;51.094;17.002;2022-08-07T04:35:05;15.40;99.90
324;DHT22;149;51.094;17.002;2022-08-07T04:37:37;15.50;99.90
324;DHT22;149;51.094;17.002;2022-08-07T04:40:18;15.70;99.90
324;DHT22;149;51.094;17.002;2022-08-07T04:42:46;15.80;99.90
324;DHT22;149;51.094;17.002;2022-08-07T04:45:18;16.00;99.90
324;DHT22;149;51.094;17.002;2022-08-07T04:51:23;15.90;99.90
324;DHT22;149;51.094;17.002;2022-08-07T04:54:07;16.00;99.90
324;DHT22;149;51.094;17.002;2022-08-07T04:56:56;16.10;99.90
324;DHT22;149;51.094;17.002;2022-08-07T05:00:07;16.20;99.90
324;DHT22;149;51.094;17.002;2022-08-07T05:03:10;16.30;99.90
324;DHT22;149;51.094;17.002;2022-08-07T05:06:05;16.20;99.90
324;DHT22;149;51.094;17.002;2022-08-07T05:11:33;16.30;99.90
324;DHT22;149;51.094;17.002;2022-08-07T05:14:29;16.60;99.90
324;DHT22;149;51.094;17.002;2022-08-07T05:17:19;16.60;99.90
324;DHT22;149;51.094;17.002;2022-08-07T05:20:09;16.60;99.90
324;DHT22;149;51.094;17.002;2022-08-07T05:22:40;16.70;99.90
324;DHT22;149;51.094;17.002;2022-08-07T05:25:09;16.80;99.90
324;DHT22;149;51.094;17.002;2022-08-07T05:27:57;17.00;99.90
324;DHT22;149;51.094;17.002;2022-08-07T05:30:45;17.10;99.90
324;DHT22;149;51.094;17.002;2022-08-07T05:33:14;17.30;99.90
324;DHT22;149;51.094;17.002;2022-08-07T05:35:46;17.20;99.90
324;DHT22;149;51.094;17.002;2022-08-07T05:38:14;17.40;99.90
324;DHT22;149;51.094;17.002;2022-08-07T05:41:02;17.70;99.90
324;DHT22;149;51.094;17.002;2022-08-07T05:43:48;17.60;99.90
324;DHT22;149;51.094;17.002;2022-08-07T05:46:36;17.70;99.90
324;DHT22;149;51.094;17.002;2022-08-07T05:49:06;17.40;99.90
324;DHT22;149;51.094;17.002;2022-08-07T05:51:40;17.50;99.90
324;DHT22;149;51.094;17.002;2022-08-07T05:54:08;17.50;99.90
324;DHT22;149;51.094;17.002;2022-08-07T05:56:57;17.40;99.90
324;DHT22;149;51.094;17.002;2022-08-07T05:59:24;17.40;99.90
324;DHT22;149;51.094;17.002;2022-08-07T06:01:56;17.60;99.90
324;DHT22;149;51.094;17.002;2022-08-07T06:04:25;17.70;99.90
324;DHT22;149;51.094;17.002;2022-08-07T06:06:57;17.80;99.90
324;DHT22;149;51.094;17.002;2022-08-07T06:09:30;18.00;99.90
324;DHT22;149;51.094;17.002;2022-08-07T06:12:18;18.30;99.90
324;DHT22;149;51.094;17.002;2022-08-07T06:14:59;18.50;99.90
324;DHT22;149;51.094;17.002;2022-08-07T06:17:32;18.60;99.90
324;DHT22;149;51.094;17.002;2022-08-07T06:20:20;18.60;99.90
324;DHT22;149;51.094;17.002;2022-08-07T06:23:09;18.70;99.90
324;DHT22;149;51.094;17.002;2022-08-07T06:26:00;18.60;99.90
324;DHT22;149;51.094;17.002;2022-08-07T06:28:28;18.50;99.90
324;DHT22;149;51.094;17.002;2022-08-07T06:30:59;18.70;99.90
324;DHT22;149;51.094;17.002;2022-08-07T06:33:29;18.70;99.90
324;DHT22;149;51.094;17.002;2022-08-07T06:36:01;18.80;99.90
324;DHT22;149;51.094;17.002;2022-08-07T06:38:43;18.90;99.90
324;DHT22;149;51.094;17.002;2022-08-07T06:41:37;19.60;99.90
324;DHT22;149;51.094;17.002;2022-08-07T06:44:26;20.10;99.90
324;DHT22;149;51.094;17.002;2022-08-07T06:47:00;20.90;99.90
324;DHT22;149;51.094;17.002;2022-08-07T06:49:37;20.80;99.90
324;DHT22;149;51.094;17.002;2022-08-07T06:52:18;21.10;99.90
324;DHT22;149;51.094;17.002;2022-08-07T06:55:05;21.70;99.90
324;DHT22;149;51.094;17.002;2022-08-07T06:57:58;22.00;99.90
324;DHT22;149;51.094;17.002;2022-08-07T07:00:31;21.60;99.90
324;DHT22;149;51.094;17.002;2022-08-07T07:02:59;22.30;99.90
324;DHT22;149;51.094;17.002;2022-08-07T07:05:37;22.20;99.90
324;DHT22;149;51.094;17.002;2022-08-07T07:08:28;22.20;99.90
324;DHT22;149;51.094;17.002;2022-08-07T07:10:59;22.40;99.90
324;DHT22;149;51.094;17.002;2022-08-07T07:13:39;22.60;99.90
324;DHT22;149;51.094;17.002;2022-08-07T07:16:29;23.20;99.90
324;DHT22;149;51.094;17.002;2022-08-07T07:19:05;23.90;99.90
324;DHT22;149;51.094;17.002;2022-08-07T07:21:53;24.40;99.90
324;DHT22;149;51.094;17.002;2022-08-07T07:24:41;25.00;99.90
324;DHT22;149;51.094;17.002;2022-08-07T07:27:31;26.30;99.90
324;DHT22;149;51.094;17.002;2022-08-07T07:30:25;27.30;99.90
324;DHT22;149;51.094;17.002;2022-08-07T07:33:05;27.30;99.90
324;DHT22;149;51.094;17.002;2022-08-07T07:35:34;28.90;99.90
324;DHT22;149;51.094;17.002;2022-08-07T07:38:32;29.80;98.10
324;DHT22;149;51.094;17.002;2022-08-07T07:41:13;30.80;95.80
324;DHT22;149;51.094;17.002;2022-08-07T07:43:46;30.70;94.10
324;DHT22;149;51.094;17.002;2022-08-07T07:46:36;29.00;95.60
324;DHT22;149;51.094;17.002;2022-08-07T07:49:27;27.50;98.90
324;DHT22;149;51.094;17.002;2022-08-07T07:52:20;29.10;96.30
324;DHT22;149;51.094;17.002;2022-08-07T07:54:49;29.70;94.00
324;DHT22;149;51.094;17.002;2022-08-07T07:57:19;30.60;91.50
324;DHT22;149;51.094;17.002;2022-08-07T08:00:07;30.90;90.90
324;DHT22;149;51.094;17.002;2022-08-07T08:02:37;29.90;91.10
324;DHT22;149;51.094;17.002;2022-08-07T08:05:28;30.80;87.60
324;DHT22;149;51.094;17.002;2022-08-07T08:08:16;31.60;84.30
324;DHT22;149;51.094;17.002;2022-08-07T08:11:06;32.10;80.30
324;DHT22;149;51.094;17.002;2022-08-07T08:13:46;31.60;79.90
324;DHT22;149;51.094;17.002;2022-08-07T08:16:28;31.50;81.00
324;DHT22;149;51.094;17.002;2022-08-07T08:19:01;31.30;77.80
324;DHT22;149;51.094;17.002;2022-08-07T08:21:49;31.20;74.20
324;DHT22;149;51.094;17.002;2022-08-07T08:24:40;31.80;73.20
324;DHT22;149;51.094;17.002;2022-08-07T08:27:50;29.60;75.20
324;DHT22;149;51.094;17.002;2022-08-07T08:30:26;29.30;78.60
324;DHT22;149;51.094;17.002;2022-08-07T08:32:59;29.00;78.60
324;DHT22;149;51.094;17.002;2022-08-07T08:35:30;27.90;83.50
324;DHT22;149;51.094;17.002;2022-08-07T08:38:17;26.30;86.70
324;DHT22;149;51.094;17.002;2022-08-07T08:41:20;24.40;90.20
324;DHT22;149;51.094;17.002;2022-08-07T08:44:06;24.50;90.70
324;DHT22;149;51.094;17.002;2022-08-07T08:49:25;30.00;75.00
324;DHT22;149;51.094;17.002;2022-08-07T08:54:58;26.30;81.90
324;DHT22;149;51.094;17.002;2022-08-07T08:57:41;26.40;81.30
324;DHT22;149;51.094;17.002;2022-08-07T09:00:11;26.90;77.10
324;DHT22;149;51.094;17.002;2022-08-07T09:03:00;29.40;72.90
324;DHT22;149;51.094;17.002;2022-08-07T09:05:59;30.70;67.40
324;DHT22;149;51.094;17.002;2022-08-07T09:08:39;29.50;67.70
324;DHT22;149;51.094;17.002;2022-08-07T09:11:34;28.90;65.60
324;DHT22;149;51.094;17.002;2022-08-07T09:14:33;28.70;69.10
324;DHT22;149;51.094;17.002;2022-08-07T09:17:14;29.90;66.00
324;DHT22;149;51.094;17.002;2022-08-07T09:36:17;31.20;58.20
324;DHT22;149;51.094;17.002;2022-08-07T09:38:53;28.20;62.20
324;DHT22;149;51.094;17.002;2022-08-07T09:41:34;26.90;67.60
324;DHT22;149;51.094;17.002;2022-08-07T09:44:46;25.00;71.60
324;DHT22;149;51.094;17.002;2022-08-07T09:54:07;23.20;81.60
324;DHT22;149;51.094;17.002;2022-08-07T09:59:49;22.70;82.20
324;DHT22;149;51.094;17.002;2022-08-07T10:26:30;22.70;81.60
324;DHT22;149;51.094;17.002;2022-08-07T10:29:36;22.80;83.60
324;DHT22;149;51.094;17.002;2022-08-07T10:32:22;22.90;82.50
324;DHT22;149;51.094;17.002;2022-08-07T10:41:32;22.90;84.50
324;DHT22;149;51.094;17.002;2022-08-07T10:50:28;22.30;83.40
324;DHT22;149;51.094;17.002;2022-08-07T10:53:21;22.30;83.60
324;DHT22;149;51.094;17.002;2022-08-07T10:55:59;22.00;82.70
324;DHT22;149;51.094;17.002;2022-08-07T10:58:44;22.40;84.00
324;DHT22;149;51.094;17.002;2022-08-07T11:08:39;22.20;85.90
324;DHT22;149;51.094;17.002;2022-08-07T11:17:20;21.80;87.50
324;DHT22;149;51.094;17.002;2022-08-07T11:26:42;22.40;84.60
324;DHT22;149;51.094;17.002;2022-08-07T11:29:28;22.40;83.40
324;DHT22;149;51.094;17.002;2022-08-07T11:32:20;22.30;84.60
324;DHT22;149;51.094;17.002;2022-08-07T11:34:57;22.40;84.70
324;DHT22;149;51.094;17.002;2022-08-07T11:43:30;22.40;85.60
324;DHT22;149;51.094;17.002;2022-08-07T11:46:37;22.40;85.60
324;DHT22;149;51.094;17.002;2022-08-07T11:49:24;22.30;85.60
324;DHT22;149;51.094;17.002;2022-08-07T11:58:29;21.80;86.50
324;DHT22;149;51.094;17.002;2022-08-07T12:09:36;22.30;86.80
324;DHT22;149;51.094;17.002;2022-08-07T12:12:13;22.30;87.30
324;DHT22;149;51.094;17.002;2022-08-07T12:15:12;22.30;88.10
324;DHT22;149;51.094;17.002;2022-08-07T12:18:07;22.30;88.10
324;DHT22;149;51.094;17.002;2022-08-07T12:21:14;22.40;86.20
324;DHT22;149;51.094;17.002;2022-08-07T12:27:38;22.40;88.70
324;DHT22;149;51.094;17.002;2022-08-07T12:30:33;22.50;86.50
324;DHT22;149;51.094;17.002;2022-08-07T12:33:16;22.40;86.40
324;DHT22;149;51.094;17.002;2022-08-07T12:35:57;22.40;86.10
324;DHT22;149;51.094;17.002;2022-08-07T12:38:28;22.40;85.80
324;DHT22;149;51.094;17.002;2022-08-07T12:41:13;22.40;88.70
324;DHT22;149;51.094;17.002;2022-08-07T12:43:45;22.50;89.50
324;DHT22;149;51.094;17.002;2022-08-07T12:49:15;22.70;88.80
324;DHT22;149;51.094;17.002;2022-08-07T12:52:07;22.70;87.90
324;DHT22;149;51.094;17.002;2022-08-07T12:57:34;22.50;84.80
324;DHT22;149;51.094;17.002;2022-08-07T13:00:28;22.40;86.60
324;DHT22;149;51.094;17.002;2022-08-07T13:03:59;22.50;86.50
324;DHT22;149;51.094;17.002;2022-08-07T13:06:52;22.40;85.00
324;DHT22;149;51.094;17.002;2022-08-07T13:10:37;22.40;86.20
324;DHT22;149;51.094;17.002;2022-08-07T13:13:41;22.40;87.30
324;DHT22;149;51.094;17.002;2022-08-07T13:22:13;22.60;87.60
324;DHT22;149;51.094;17.002;2022-08-07T13:25:00;22.70;86.30
324;DHT22;149;51.094;17.002;2022-08-07T13:27:37;22.70;88.40
324;DHT22;149;51.094;17.002;2022-08-07T13:30:26;22.60;87.20
324;DHT22;149;51.094;17.002;2022-08-07T13:36:13;22.40;86.80
324;DHT22;149;51.094;17.002;2022-08-07T13:38:57;22.50;88.20
324;DHT22;149;51.094;17.002;2022-08-07T13:41:56;22.40;87.50
324;DHT22;149;51.094;17.002;2022-08-07T13:44:29;22.10;87.10
324;DHT22;149;51.094;17.002;2022-08-07T13:47:04;22.10;87.80
324;DHT22;149;51.094;17.002;2022-08-07T13:49:41;22.20;87.40
324;DHT22;149;51.094;17.002;2022-08-07T13:52:32;22.30;88.50
324;DHT22;149;51.094;17.002;2022-08-07T13:55:12;22.50;86.20
324;DHT22;149;51.094;17.002;2022-08-07T13:57:58;22.50;86.10
324;DHT22;149;51.094;17.002;2022-08-07T14:00:59;22.40;87.90
324;DHT22;149;51.094;17.002;2022-08-07T14:03:36;22.40;88.70
324;DHT22;149;51.094;17.002;2022-08-07T14:06:35;22.30;88.60
324;DHT22;149;51.094;17.002;2022-08-07T14:09:06;22.40;89.70
324;DHT22;149;51.094;17.002;2022-08-07T14:11:47;22.50;89.00
324;DHT22;149;51.094;17.002;2022-08-07T14:15:04;22.50;88.70
324;DHT22;149;51.094;17.002;2022-08-07T14:17:37;22.40;86.90
324;DHT22;149;51.094;17.002;2022-08-07T14:20:30;22.40;89.70
324;DHT22;149;51.094;17.002;2022-08-07T14:23:44;22.50;88.20
324;DHT22;149;51.094;17.002;2022-08-07T14:26:50;22.50;89.70
324;DHT22;149;51.094;17.002;2022-08-07T14:29:26;22.70;87.90
324;DHT22;149;51.094;17.002;2022-08-07T14:32:16;22.40;88.40
324;DHT22;149;51.094;17.002;2022-08-07T14:34:46;22.30;88.10
324;DHT22;149;51.094;17.002;2022-08-07T14:37:18;22.20;88.10
324;DHT22;149;51.094;17.002;2022-08-07T14:40:03;22.10;89.40
324;DHT22;149;51.094;17.002;2022-08-07T14:43:04;22.10;90.30
324;DHT22;149;51.094;17.002;2022-08-07T14:45:54;22.40;89.70
324;DHT22;149;51.094;17.002;2022-08-07T14:48:26;22.30;88.60
324;DHT22;149;51.094;17.002;2022-08-07T14:51:19;22.30;89.40
324;DHT22;149;51.094;17.002;2022-08-07T14:53:49;22.10;88.30
324;DHT22;149;51.094;17.002;2022-08-07T14:56:39;22.00;90.00
324;DHT22;149;51.094;17.002;2022-08-07T14:59:11;22.20;90.10
324;DHT22;149;51.094;17.002;2022-08-07T15:02:12;22.20;89.40
324;DHT22;149;51.094;17.002;2022-08-07T15:05:00;22.20;90.30
324;DHT22;149;51.094;17.002;2022-08-07T15:07:28;22.30;90.00
324;DHT22;149;51.094;17.002;2022-08-07T15:10:22;22.20;89.90
324;DHT22;149;51.094;17.002;2022-08-07T15:12:58;22.10;89.60
324;DHT22;149;51.094;17.002;2022-08-07T15:15:38;22.00;90.20
324;DHT22;149;51.094;17.002;2022-08-07T15:18:11;22.00;90.20
324;DHT22;149;51.094;17.002;2022-08-07T15:21:03;22.00;90.60
324;DHT22;149;51.094;17.002;2022-08-07T15:23:53;22.10;91.00
324;DHT22;149;51.094;17.002;2022-08-07T15:27:03;22.10;90.60
324;DHT22;149;51.094;17.002;2022-08-07T15:29:34;22.10;90.60
324;DHT22;149;51.094;17.002;2022-08-07T15:32:23;22.10;90.70
324;DHT22;149;51.094;17.002;2022-08-07T15:35:11;22.10;91.20
324;DHT22;149;51.094;17.002;2022-08-07T15:37:46;22.20;91.00
324;DHT22;149;51.094;17.002;2022-08-07T15:40:35;22.20;91.30
324;DHT22;149;51.094;17.002;2022-08-07T15:43:27;22.20;90.70
324;DHT22;149;51.094;17.002;2022-08-07T15:46:19;22.10;91.00
324;DHT22;149;51.094;17.002;2022-08-07T15:49:05;22.00;91.10
324;DHT22;149;51.094;17.002;2022-08-07T15:51:45;22.00;91.70
324;DHT22;149;51.094;17.002;2022-08-07T15:54:31;22.00;90.90
324;DHT22;149;51.094;17.002;2022-08-07T15:57:01;22.00;91.00
324;DHT22;149;51.094;17.002;2022-08-07T15:59:30;22.10;91.30
324;DHT22;149;51.094;17.002;2022-08-07T16:02:13;22.00;92.00
324;DHT22;149;51.094;17.002;2022-08-07T16:04:46;22.00;92.00
324;DHT22;149;51.094;17.002;2022-08-07T16:07:15;21.90;91.50
324;DHT22;149;51.094;17.002;2022-08-07T16:10:15;21.90;91.70
324;DHT22;149;51.094;17.002;2022-08-07T16:22:58;21.80;92.00
324;DHT22;149;51.094;17.002;2022-08-07T16:25:38;21.80;92.10
324;DHT22;149;51.094;17.002;2022-08-07T16:32:00;21.80;92.50
324;DHT22;149;51.094;17.002;2022-08-07T16:40:30;21.60;92.70
324;DHT22;149;51.094;17.002;2022-08-07T16:46:28;21.60;92.90
324;DHT22;149;51.094;17.002;2022-08-07T16:49:47;21.50;93.00
324;DHT22;149;51.094;17.002;2022-08-07T16:56:05;21.50;93.50
324;DHT22;149;51.094;17.002;2022-08-07T16:59:02;21.50;93.10
324;DHT22;149;51.094;17.002;2022-08-07T17:01:47;21.50;92.90
324;DHT22;149;51.094;17.002;2022-08-07T17:07:41;21.50;93.00
324;DHT22;149;51.094;17.002;2022-08-07T17:16:21;21.30;93.80
324;DHT22;149;51.094;17.002;2022-08-07T17:21:21;21.20;93.50
324;DHT22;149;51.094;17.002;2022-08-07T17:24:02;21.10;93.80
324;DHT22;149;51.094;17.002;2022-08-07T17:32:27;21.10;94.20
324;DHT22;149;51.094;17.002;2022-08-07T17:41:32;20.90;94.50
324;DHT22;149;51.094;17.002;2022-08-07T17:44:50;20.90;94.90
324;DHT22;149;51.094;17.002;2022-08-07T17:47:43;20.90;95.00
324;DHT22;149;51.094;17.002;2022-08-07T17:50:37;20.80;95.10
324;DHT22;149;51.094;17.002;2022-08-07T17:53:19;20.70;95.50
324;DHT22;149;51.094;17.002;2022-08-07T17:56:21;20.80;95.40
324;DHT22;149;51.094;17.002;2022-08-07T17:59:02;20.70;95.70
324;DHT22;149;51.094;17.002;2022-08-07T18:01:43;20.60;96.20
324;DHT22;149;51.094;17.002;2022-08-07T18:15:33;20.20;97.80
324;DHT22;149;51.094;17.002;2022-08-07T18:18:09;20.20;97.60
324;DHT22;149;51.094;17.002;2022-08-07T18:21:12;20.10;97.90
324;DHT22;149;51.094;17.002;2022-08-07T18:27:11;20.00;99.20
324;DHT22;149;51.094;17.002;2022-08-07T18:36:20;19.80;99.90
324;DHT22;149;51.094;17.002;2022-08-07T18:39:05;19.80;99.90
324;DHT22;149;51.094;17.002;2022-08-07T18:45:15;19.60;99.90
324;DHT22;149;51.094;17.002;2022-08-07T18:48:12;19.60;99.90
324;DHT22;149;51.094;17.002;2022-08-07T18:51:16;19.60;99.90
324;DHT22;149;51.094;17.002;2022-08-07T18:54:25;19.40;99.90
324;DHT22;149;51.094;17.002;2022-08-07T19:00:11;19.30;99.90
324;DHT22;149;51.094;17.002;2022-08-07T19:06:11;19.20;99.90
324;DHT22;149;51.094;17.002;2022-08-07T19:12:17;19.10;99.90
324;DHT22;149;51.094;17.002;2022-08-07T19:17:39;19.10;99.90
324;DHT22;149;51.094;17.002;2022-08-07T19:23:42;19.00;99.90
324;DHT22;149;51.094;17.002;2022-08-07T19:26:32;19.00;99.90
324;DHT22;149;51.094;17.002;2022-08-07T19:29:22;18.90;99.90
324;DHT22;149;51.094;17.002;2022-08-07T19:32:11;19.00;99.90
324;DHT22;149;51.094;17.002;2022-08-07T19:35:01;18.80;99.90
324;DHT22;149;51.094;17.002;2022-08-07T19:37:30;18.80;99.90
324;DHT22;149;51.094;17.002;2022-08-07T19:40:19;18.80;99.90
324;DHT22;149;51.094;17.002;2022-08-07T19:42:59;18.70;99.90
324;DHT22;149;51.094;17.002;2022-08-07T19:45:30;18.70;99.90
324;DHT22;149;51.094;17.002;2022-08-07T19:49:19;18.70;99.90
324;DHT22;149;51.094;17.002;2022-08-07T19:51:32;18.70;99.90
324;DHT22;149;51.094;17.002;2022-08-07T19:54:20;18.70;99.90
324;DHT22;149;51.094;17.002;2022-08-07T19:57:03;18.60;99.90
324;DHT22;149;51.094;17.002;2022-08-07T20:00:00;18.60;99.90
324;DHT22;149;51.094;17.002;2022-08-07T20:03:02;18.50;99.90
324;DHT22;149;51.094;17.002;2022-08-07T20:06:01;18.60;99.90
324;DHT22;149;51.094;17.002;2022-08-07T20:08:41;18.70;99.90
324;DHT22;149;51.094;17.002;2022-08-07T20:11:17;18.70;99.90
324;DHT22;149;51.094;17.002;2022-08-07T20:14:18;18.80;99.90
324;DHT22;149;51.094;17.002;2022-08-07T20:17:08;18.60;99.90
324;DHT22;149;51.094;17.002;2022-08-07T20:19:45;18.60;99.90
324;DHT22;149;51.094;17.002;2022-08-07T20:22:28;18.60;99.90
324;DHT22;149;51.094;17.002;2022-08-07T20:25:04;18.40;99.90
324;DHT22;149;51.094;17.002;2022-08-07T20:27:45;18.40;99.90
324;DHT22;149;51.094;17.002;2022-08-07T20:30:32;18.70;99.90
324;DHT22;149;51.094;17.002;2022-08-07T20:33:10;18.70;99.90
324;DHT22;149;51.094;17.002;2022-08-07T20:36:03;18.50;99.90
324;DHT22;149;51.094;17.002;2022-08-07T20:38:31;18.60;99.90
324;DHT22;149;51.094;17.002;2022-08-07T20:41:01;18.60;99.90
324;DHT22;149;51.094;17.002;2022-08-07T20:43:46;18.50;99.90
324;DHT22;149;51.094;17.002;2022-08-07T20:46:28;18.50;99.90
324;DHT22;149;51.094;17.002;2022-08-07T20:49:17;18.40;99.90
324;DHT22;149;51.094;17.002;2022-08-07T20:52:29;18.30;99.90
324;DHT22;149;51.094;17.002;2022-08-07T20:55:26;18.50;99.90
324;DHT22;149;51.094;17.002;2022-08-07T20:58:36;18.30;99.90
324;DHT22;149;51.094;17.002;2022-08-07T21:01:10;18.20;99.90
324;DHT22;149;51.094;17.002;2022-08-07T21:03:53;18.40;99.90
324;DHT22;149;51.094;17.002;2022-08-07T21:06:46;18.20;99.90
324;DHT22;149;51.094;17.002;2022-08-07T21:09:40;18.20;99.90
324;DHT22;149;51.094;17.002;2022-08-07T21:12:25;18.20;99.90
324;DHT22;149;51.094;17.002;2022-08-07T21:14:58;18.20;99.90
324;DHT22;149;51.094;17.002;2022-08-07T21:17:31;18.30;99.90
324;DHT22;149;51.094;17.002;2022-08-07T21:20:21;18.10;99.90
324;DHT22;149;51.094;17.002;2022-08-07T21:22:57;18.10;99.90
324;DHT22;149;51.094;17.002;2022-08-07T21:25:47;18.30;99.90
324;DHT22;149;51.094;17.002;2022-08-07T21:28:29;18.30;99.90
324;DHT22;149;51.094;17.002;2022-08-07T21:32:14;18.30;99.90
324;DHT22;149;51.094;17.002;2022-08-07T21:34:44;18.30;99.90
324;DHT22;149;51.094;17.002;2022-08-07T21:37:26;18.30;99.90
324;DHT22;149;51.094;17.002;2022-08-07T21:40:31;18.10;99.90
324;DHT22;149;51.094;17.002;2022-08-07T21:43:09;18.30;99.90